createdAt,value
2022-12-28T00:02:22.109Z,1.43
2022-12-28T00:04:49.790Z,1.30
2022-12-28T00:07:17.459Z,1.10
2022-12-28T00:09:45.088Z,1.00
2022-12-28T00:12:12.706Z,1.10
2022-12-28T00:14:40.294Z,0.97
2022-12-28T00:17:09.219Z,1.20
2022-12-28T00:19:36.810Z,1.07
2022-12-28T00:22:04.427Z,1.30
2022-12-28T00:24:32.104Z,1.30
2022-12-28T00:26:59.895Z,1.00
2022-12-28T00:29:27.637Z,1.43
2022-12-28T00:31:55.756Z,1.10
2022-12-28T00:34:26.157Z,1.40
2022-12-28T00:37:09.429Z,1.47
2022-12-28T00:39:40.856Z,1.10
2022-12-28T00:42:08.465Z,1.30
2022-12-28T00:44:38.047Z,1.20
2022-12-28T00:47:05.669Z,1.20
2022-12-28T00:49:34.590Z,1.40
2022-12-28T00:52:02.293Z,1.00
2022-12-28T00:54:30.171Z,1.07
2022-12-28T00:56:57.832Z,1.20
2022-12-28T00:59:25.411Z,0.90
2022-12-28T01:01:53.664Z,1.00
2022-12-28T01:04:22.038Z,1.10
2022-12-28T01:06:50.940Z,1.10
2022-12-28T01:09:18.547Z,0.83
2022-12-28T01:11:46.992Z,0.90
2022-12-28T01:14:15.771Z,0.80
2022-12-28T01:16:43.540Z,0.90
2022-12-28T01:19:11.975Z,1.07
2022-12-28T01:21:40.104Z,0.90
2022-12-28T01:24:10.739Z,1.03
2022-12-28T01:26:38.318Z,1.10
2022-12-28T01:29:05.863Z,0.90
2022-12-28T01:31:33.611Z,1.20
2022-12-28T01:34:01.419Z,0.80
2022-12-28T01:36:31.371Z,0.90
2022-12-28T01:38:59.942Z,0.80
2022-12-28T01:41:29.784Z,0.90
2022-12-28T01:44:11.076Z,0.90
2022-12-28T01:46:40.714Z,1.00
2022-12-28T01:49:10.778Z,1.10
2022-12-28T01:51:42.802Z,0.90
2022-12-28T01:54:10.586Z,1.00
2022-12-28T01:56:39.534Z,1.03
2022-12-28T01:59:07.906Z,0.80
2022-12-28T02:01:37.860Z,1.10
2022-12-28T02:04:05.651Z,1.20
2022-12-28T02:06:33.523Z,0.90
2022-12-28T02:09:21.474Z,1.00
2022-12-28T02:11:50.696Z,1.00
2022-12-28T02:14:19.093Z,1.10
2022-12-28T02:16:46.848Z,0.87
2022-12-28T02:19:15.575Z,1.20
2022-12-28T02:21:49.236Z,1.00
2022-12-28T02:24:27.459Z,0.90
2022-12-28T02:26:58.809Z,0.83
2022-12-28T02:29:38.853Z,1.00
2022-12-28T02:32:11.958Z,1.00
2022-12-28T02:34:41.510Z,1.00
2022-12-28T02:37:11.468Z,1.00
2022-12-28T02:39:41.994Z,1.00
2022-12-28T02:42:10.745Z,1.00
2022-12-28T02:44:50.873Z,1.13
2022-12-28T02:47:27.819Z,1.07
2022-12-28T02:50:04.102Z,0.90
2022-12-28T02:52:37.448Z,0.97
2022-12-28T02:55:31.111Z,1.10
2022-12-28T02:58:06.800Z,1.10
2022-12-28T03:00:42.761Z,1.00
2022-12-28T03:03:16.986Z,1.20
2022-12-28T03:06:01.598Z,1.07
2022-12-28T03:08:33.382Z,1.20
2022-12-28T03:11:03.223Z,1.00
2022-12-28T03:13:42.797Z,1.00
2022-12-28T03:16:13.915Z,1.00
2022-12-28T03:18:53.204Z,1.20
2022-12-28T03:21:31.330Z,1.30
2022-12-28T03:24:09.373Z,1.50
2022-12-28T03:26:48.821Z,1.40
2022-12-28T03:29:27.420Z,1.43
2022-12-28T03:31:56.770Z,1.37
2022-12-28T03:34:24.524Z,1.40
2022-12-28T03:36:54.611Z,0.93
2022-12-28T03:39:32.241Z,1.20
2022-12-28T03:42:11.864Z,1.37
2022-12-28T03:44:40.103Z,1.40
2022-12-28T03:47:11.739Z,1.30
2022-12-28T03:49:40.128Z,1.27
2022-12-28T03:52:08.152Z,1.17
2022-12-28T03:54:35.836Z,1.20
2022-12-28T03:57:03.691Z,1.40
2022-12-28T03:59:36.409Z,1.20
2022-12-28T04:02:04.155Z,1.30
2022-12-28T04:04:34.582Z,1.10
2022-12-28T04:07:02.202Z,0.90
2022-12-28T04:09:32.455Z,1.10
2022-12-28T04:12:00.469Z,1.03
2022-12-28T04:14:47.996Z,1.40
2022-12-28T04:17:15.765Z,1.00
2022-12-28T04:19:44.839Z,1.20
2022-12-28T04:22:12.504Z,1.00
2022-12-28T04:24:40.145Z,1.17
2022-12-28T04:27:09.451Z,1.40
2022-12-28T04:29:37.642Z,1.27
2022-12-28T04:32:11.746Z,1.10
2022-12-28T04:34:46.404Z,1.10
2022-12-28T04:37:17.345Z,1.27
2022-12-28T04:39:55.298Z,1.00
2022-12-28T04:42:24.848Z,0.90
2022-12-28T04:44:52.405Z,1.00
2022-12-28T04:47:20.002Z,0.90
2022-12-28T04:49:47.644Z,1.00
2022-12-28T04:52:15.269Z,1.33
2022-12-28T04:54:44.192Z,1.00
2022-12-28T04:57:11.826Z,1.00
2022-12-28T04:59:40.361Z,1.10
2022-12-28T05:02:08.078Z,1.10
2022-12-28T05:04:35.758Z,0.90
2022-12-28T05:07:03.373Z,1.10
2022-12-28T05:09:31.447Z,1.10
2022-12-28T05:12:00.689Z,0.90
2022-12-28T05:14:33.579Z,1.10
2022-12-28T05:17:04.343Z,1.10
2022-12-28T05:19:31.945Z,1.00
2022-12-28T05:21:59.612Z,1.30
2022-12-28T05:24:27.234Z,1.10
2022-12-28T05:26:54.850Z,1.00
2022-12-28T05:29:23.773Z,1.13
2022-12-28T05:31:51.371Z,1.20
2022-12-28T05:34:19.118Z,1.10
2022-12-28T05:36:46.676Z,1.27
2022-12-28T05:39:14.304Z,0.90
2022-12-28T05:41:41.873Z,1.27
2022-12-28T05:44:09.408Z,1.10
2022-12-28T05:46:38.351Z,1.23
2022-12-28T05:49:08.611Z,1.20
2022-12-28T05:51:36.165Z,0.90
2022-12-28T05:54:04.784Z,1.00
2022-12-28T05:56:32.678Z,0.90
2022-12-28T05:59:04.003Z,1.13
2022-12-28T06:01:32.726Z,0.90
2022-12-28T06:04:03.426Z,1.10
2022-12-28T06:06:31.479Z,1.00
2022-12-28T06:08:59.635Z,1.60
2022-12-28T06:11:28.351Z,1.07
2022-12-28T06:13:56.084Z,1.20
2022-12-28T06:16:24.795Z,1.40
2022-12-28T06:18:52.752Z,1.20
2022-12-28T06:21:22.966Z,1.20
2022-12-28T06:23:50.858Z,1.13
2022-12-28T06:26:19.619Z,1.27
2022-12-28T06:28:47.838Z,1.23
2022-12-28T06:31:16.656Z,1.20
2022-12-28T06:33:44.596Z,1.17
2022-12-28T06:36:19.365Z,1.40
2022-12-28T06:38:49.593Z,2.37
2022-12-28T06:41:17.947Z,1.13
2022-12-28T06:43:46.022Z,1.00
2022-12-28T06:46:14.324Z,1.20
2022-12-28T06:48:42.267Z,1.10
2022-12-28T06:51:12.352Z,1.30
2022-12-28T06:53:40.103Z,1.17
2022-12-28T06:56:11.445Z,1.40
2022-12-28T06:58:39.056Z,1.20
2022-12-28T07:01:07.304Z,1.17
2022-12-28T07:03:35.030Z,0.90
2022-12-28T07:06:02.867Z,1.30
2022-12-28T07:08:30.542Z,1.10
2022-12-28T07:11:03.056Z,1.30
2022-12-28T07:13:32.045Z,1.70
2022-12-28T07:16:02.594Z,1.60
2022-12-28T07:18:30.644Z,1.33
2022-12-28T07:21:00.357Z,1.20
2022-12-28T07:23:30.227Z,1.30
2022-12-28T07:25:58.359Z,1.33
2022-12-28T07:28:26.025Z,1.97
2022-12-28T07:30:55.035Z,1.77
2022-12-28T07:33:22.653Z,1.40
2022-12-28T07:35:50.285Z,1.40
2022-12-28T07:38:21.304Z,1.70
2022-12-28T07:40:49.331Z,2.07
2022-12-28T07:43:16.952Z,2.03
2022-12-28T07:45:44.547Z,1.87
2022-12-28T07:48:13.430Z,1.73
2022-12-28T07:50:41.008Z,1.60
2022-12-28T07:53:08.710Z,2.20
2022-12-28T07:55:36.321Z,1.30
2022-12-28T07:58:03.951Z,1.20
2022-12-28T08:00:31.557Z,1.50
2022-12-28T08:02:59.736Z,1.67
2022-12-28T08:05:28.628Z,1.20
2022-12-28T08:08:03.209Z,1.50
2022-12-28T08:10:31.221Z,1.10
2022-12-28T08:15:54.092Z,1.23
2022-12-28T08:18:21.953Z,1.10
2022-12-28T08:20:50.860Z,1.10
2022-12-28T08:23:18.475Z,1.10
2022-12-28T08:25:46.141Z,1.07
2022-12-28T08:28:32.593Z,1.10
2022-12-28T08:31:05.343Z,1.10
2022-12-28T08:33:32.989Z,1.00
2022-12-28T08:36:01.913Z,0.90
2022-12-28T08:38:29.551Z,0.97
2022-12-28T08:40:57.868Z,1.23
2022-12-28T08:43:25.648Z,1.27
2022-12-28T08:46:01.813Z,1.20
2022-12-28T08:48:29.993Z,1.10
2022-12-28T08:51:01.288Z,1.10
2022-12-28T08:53:30.204Z,1.00
2022-12-28T08:56:06.652Z,1.20
2022-12-28T08:58:35.246Z,1.37
2022-12-28T09:01:11.068Z,1.67
2022-12-28T09:03:39.967Z,1.50
2022-12-28T09:06:09.109Z,1.30
2022-12-28T09:08:38.129Z,1.33
2022-12-28T09:11:06.461Z,1.40
2022-12-28T09:13:34.303Z,1.30
2022-12-28T09:16:02.757Z,1.37
2022-12-28T09:18:30.968Z,1.20
2022-12-28T09:20:58.626Z,1.30
2022-12-28T09:23:28.285Z,1.53
2022-12-28T09:25:57.157Z,1.40
2022-12-28T09:28:24.715Z,1.37
2022-12-28T09:30:52.352Z,1.67
2022-12-28T09:33:29.290Z,1.70
2022-12-28T09:35:58.437Z,1.60
2022-12-28T09:38:26.126Z,1.57
2022-12-28T09:40:53.853Z,1.80
2022-12-28T09:43:22.807Z,1.63
2022-12-28T09:45:50.708Z,1.70
2022-12-28T09:48:19.898Z,1.60
2022-12-28T09:50:47.983Z,2.10
2022-12-28T09:53:20.710Z,1.70
2022-12-28T09:55:55.112Z,2.07
2022-12-28T09:58:24.130Z,1.50
2022-12-28T10:00:53.729Z,1.60
2022-12-28T10:03:23.869Z,1.60
2022-12-28T10:05:52.074Z,1.43
2022-12-28T10:08:21.248Z,1.70
2022-12-28T10:10:50.051Z,1.43
2022-12-28T10:16:12.850Z,1.77
2022-12-28T10:18:40.505Z,1.67
2022-12-28T10:21:08.133Z,1.70
2022-12-28T10:23:50.177Z,1.13
2022-12-28T10:26:24.190Z,1.30
2022-12-28T10:28:52.712Z,1.20
2022-12-28T10:31:33.361Z,1.45
2022-12-28T10:34:01.518Z,1.20
2022-12-28T10:36:32.608Z,1.30
2022-12-28T10:39:01.704Z,1.00
2022-12-28T10:41:35.147Z,1.20
2022-12-28T10:44:38.265Z,1.88
2022-12-28T10:47:02.792Z,1.35
2022-12-28T10:49:33.290Z,1.40
2022-12-28T10:52:02.502Z,1.65
2022-12-28T10:54:33.408Z,1.40
2022-12-28T10:57:01.393Z,1.30
2022-12-28T10:59:29.676Z,1.10
2022-12-28T11:02:15.243Z,1.08
2022-12-28T11:04:52.972Z,1.30
2022-12-28T11:07:27.985Z,1.30
2022-12-28T11:09:55.622Z,0.93
2022-12-28T11:12:24.228Z,0.90
2022-12-28T11:14:52.633Z,0.95
2022-12-28T11:17:23.788Z,1.10
2022-12-28T11:19:52.776Z,1.00
2022-12-28T11:22:22.916Z,1.00
2022-12-28T11:24:50.736Z,0.90
2022-12-28T11:27:20.184Z,0.98
2022-12-28T11:29:48.995Z,0.90
2022-12-28T11:32:19.699Z,1.25
2022-12-28T11:34:48.928Z,1.13
2022-12-28T11:37:16.635Z,0.93
2022-12-28T11:39:45.659Z,0.82
2022-12-28T11:42:39.015Z,0.90
2022-12-28T11:45:02.149Z,1.10
2022-12-28T11:47:34.064Z,1.02
2022-12-28T11:50:11.138Z,1.08
2022-12-28T11:52:47.361Z,0.85
2022-12-28T11:55:27.661Z,0.93
2022-12-28T11:57:55.477Z,0.95
2022-12-28T12:00:34.304Z,0.80
2022-12-28T12:03:02.250Z,0.93
2022-12-28T12:05:38.903Z,0.88
2022-12-28T12:08:30.840Z,0.77
2022-12-28T12:11:13.270Z,0.70
2022-12-28T12:13:42.729Z,0.63
2022-12-28T12:16:18.309Z,0.73
2022-12-28T12:18:47.817Z,0.80
2022-12-28T12:21:22.813Z,0.80
2022-12-28T12:23:53.868Z,0.80
2022-12-28T12:26:28.120Z,0.65
2022-12-28T12:28:57.238Z,0.80
2022-12-28T12:31:29.435Z,0.80
2022-12-28T12:33:59.001Z,0.90
2022-12-28T12:36:38.076Z,0.70
2022-12-28T12:39:18.639Z,0.77
2022-12-28T12:41:51.320Z,0.95
2022-12-28T12:44:23.149Z,0.80
2022-12-28T12:47:05.640Z,0.80
2022-12-28T12:49:40.012Z,0.85
2022-12-28T12:52:15.960Z,0.95
2022-12-28T12:54:53.012Z,1.00
2022-12-28T12:57:24.790Z,0.70
2022-12-28T12:59:59.836Z,1.00
2022-12-28T13:02:36.394Z,0.70
2022-12-28T13:05:04.541Z,0.90
2022-12-28T13:07:32.746Z,0.80
2022-12-28T13:10:03.303Z,0.60
2022-12-28T13:12:30.989Z,0.80
2022-12-28T13:14:59.749Z,0.80
2022-12-28T13:17:27.730Z,0.75
2022-12-28T13:20:08.419Z,0.90
2022-12-28T13:22:36.068Z,0.88
2022-12-28T13:25:06.228Z,1.00
2022-12-28T13:27:35.470Z,0.90
2022-12-28T13:30:03.875Z,0.93
2022-12-28T13:32:37.819Z,0.93
2022-12-28T13:35:16.757Z,0.95
2022-12-28T13:37:44.410Z,0.75
2022-12-28T13:40:16.242Z,0.70
2022-12-28T13:42:49.000Z,0.77
2022-12-28T13:45:20.156Z,0.80
2022-12-28T13:47:49.781Z,1.92
2022-12-28T13:50:18.765Z,1.60
2022-12-28T13:52:50.180Z,1.15
2022-12-28T13:55:21.391Z,1.13
2022-12-28T13:57:58.932Z,1.27
2022-12-28T14:00:28.188Z,1.20
2022-12-28T14:02:56.506Z,1.05
2022-12-28T14:05:26.784Z,1.40
2022-12-28T14:07:55.225Z,1.33
2022-12-28T14:10:24.250Z,1.80
2022-12-28T14:12:55.281Z,1.50
2022-12-28T14:15:23.461Z,1.30
2022-12-28T14:17:53.424Z,1.00
2022-12-28T14:20:21.468Z,1.20
2022-12-28T14:22:49.272Z,0.95
2022-12-28T14:25:17.992Z,1.30
2022-12-28T14:27:48.959Z,1.20
2022-12-28T14:30:24.578Z,1.33
2022-12-28T14:32:52.932Z,1.27
2022-12-28T14:35:22.225Z,1.70
2022-12-28T14:37:51.996Z,1.40
2022-12-28T14:40:24.343Z,1.10
2022-12-28T14:42:54.373Z,1.40
2022-12-28T14:45:22.618Z,1.20
2022-12-28T14:47:55.626Z,1.60
2022-12-28T14:50:24.938Z,1.20
2022-12-28T14:53:02.262Z,1.30
2022-12-28T14:55:31.740Z,1.50
2022-12-28T14:58:04.014Z,1.37
2022-12-28T15:00:33.273Z,1.50
2022-12-28T15:03:14.651Z,1.27
2022-12-28T15:05:43.475Z,1.33
2022-12-28T15:08:11.928Z,1.43
2022-12-28T15:10:41.355Z,1.13
2022-12-28T15:13:10.387Z,1.10
2022-12-28T15:15:38.274Z,1.20
2022-12-28T15:18:06.039Z,1.10
2022-12-28T15:20:36.060Z,1.63
2022-12-28T15:23:04.183Z,1.13
2022-12-28T15:25:33.847Z,1.20
2022-12-28T15:28:01.539Z,1.10
2022-12-28T15:30:30.844Z,1.57
2022-12-28T15:32:58.463Z,1.10
2022-12-28T15:35:27.286Z,1.20
2022-12-28T15:37:55.900Z,1.10
2022-12-28T15:40:23.471Z,0.90
2022-12-28T15:42:51.111Z,1.10
2022-12-28T15:45:18.822Z,1.27
2022-12-28T15:47:47.714Z,1.10
2022-12-28T15:50:15.308Z,1.17
2022-12-28T15:52:42.907Z,1.30
2022-12-28T15:55:10.617Z,1.40
2022-12-28T15:57:38.357Z,1.70
2022-12-28T16:00:06.497Z,1.40
2022-12-28T16:02:34.382Z,3.03
2022-12-28T16:05:03.502Z,2.60
2022-12-28T16:07:31.141Z,1.67
2022-12-28T16:09:59.168Z,1.27
2022-12-28T16:12:26.896Z,1.53
2022-12-28T16:14:54.520Z,1.17
2022-12-28T16:17:22.177Z,1.53
2022-12-28T16:19:49.856Z,1.37
2022-12-28T16:22:18.781Z,1.70
2022-12-28T16:24:46.407Z,1.63
2022-12-28T16:27:14.024Z,2.50
2022-12-28T16:29:41.698Z,1.57
2022-12-28T16:32:09.391Z,1.83
2022-12-28T16:34:37.123Z,1.50
2022-12-28T16:37:04.917Z,1.20
2022-12-28T16:39:33.917Z,1.53
2022-12-28T16:42:01.766Z,1.20
2022-12-28T16:44:29.529Z,1.50
2022-12-28T16:46:58.354Z,2.10
2022-12-28T16:49:26.631Z,1.50
2022-12-28T16:51:54.247Z,1.83
2022-12-28T16:54:22.889Z,1.60
2022-12-28T16:56:52.811Z,1.73
2022-12-28T16:59:21.845Z,1.63
2022-12-28T17:01:49.971Z,1.40
2022-12-28T17:04:17.751Z,1.37
2022-12-28T17:06:46.458Z,1.50
2022-12-28T17:09:14.664Z,1.60
2022-12-28T17:11:42.266Z,1.30
2022-12-28T17:14:12.959Z,1.90
2022-12-28T17:16:40.910Z,1.80
2022-12-28T17:19:08.655Z,1.73
2022-12-28T17:21:36.393Z,1.47
2022-12-28T17:24:04.647Z,1.50
2022-12-28T17:26:32.471Z,1.50
2022-12-28T17:29:00.322Z,1.73
2022-12-28T17:31:29.358Z,1.93
2022-12-28T17:33:58.651Z,2.20
2022-12-28T17:36:26.613Z,2.07
2022-12-28T17:38:54.234Z,1.10
2022-12-28T17:41:22.735Z,1.60
2022-12-28T17:43:51.174Z,1.60
2022-12-28T17:46:19.465Z,1.73
2022-12-28T17:48:48.406Z,1.90
2022-12-28T17:51:16.099Z,1.60
2022-12-28T17:53:43.829Z,1.83
2022-12-28T17:56:12.465Z,1.37
2022-12-28T17:58:40.159Z,1.67
2022-12-28T18:01:08.137Z,1.10
2022-12-28T18:03:36.467Z,1.50
2022-12-28T18:06:05.555Z,1.40
2022-12-28T18:08:33.586Z,1.53
2022-12-28T18:11:01.304Z,3.20
2022-12-28T18:13:29.152Z,3.30
2022-12-28T18:15:57.200Z,1.77
2022-12-28T18:18:24.843Z,1.80
2022-12-28T18:21:00.372Z,2.20
2022-12-28T18:23:29.552Z,1.93
2022-12-28T18:26:15.954Z,2.07
2022-12-28T18:28:43.613Z,2.00
2022-12-28T18:31:11.353Z,1.73
2022-12-28T18:33:39.530Z,1.73
2022-12-28T18:36:12.604Z,1.60
2022-12-28T18:38:44.544Z,1.80
2022-12-28T18:44:00.934Z,1.70
2022-12-28T18:46:28.600Z,1.97
2022-12-28T18:48:56.499Z,2.57
2022-12-28T18:51:24.295Z,2.67
2022-12-28T18:53:53.230Z,2.33
2022-12-28T18:59:06.674Z,2.50
2022-12-28T19:04:24.522Z,1.90
2022-12-28T19:06:52.388Z,2.33
2022-12-28T19:09:21.328Z,2.80
2022-12-28T19:11:48.884Z,3.07
2022-12-28T19:14:17.952Z,2.33
2022-12-28T19:16:46.189Z,2.40
2022-12-28T19:19:16.771Z,1.90
2022-12-28T19:21:44.704Z,1.77
2022-12-28T19:24:13.637Z,1.90
2022-12-28T19:26:42.615Z,1.83
2022-12-28T19:29:11.492Z,1.37
2022-12-28T19:31:39.228Z,2.00
2022-12-28T19:34:06.906Z,1.77
2022-12-28T19:36:34.751Z,1.73
2022-12-28T19:39:02.399Z,2.40
2022-12-28T19:41:30.016Z,1.90
2022-12-28T19:43:58.906Z,2.47
2022-12-28T19:46:31.348Z,2.17
2022-12-28T19:48:59.875Z,2.07
2022-12-28T19:51:31.380Z,1.60
2022-12-28T19:54:00.125Z,1.67
2022-12-28T19:56:27.908Z,1.50
2022-12-28T19:59:03.176Z,1.90
2022-12-28T20:01:35.135Z,1.83
2022-12-28T20:04:10.482Z,2.13
2022-12-28T20:06:41.220Z,1.97
2022-12-28T20:09:08.873Z,1.87
2022-12-28T20:11:36.525Z,1.33
2022-12-28T20:14:04.688Z,1.37
2022-12-28T20:16:33.367Z,1.90
2022-12-28T20:19:06.306Z,1.90
2022-12-28T20:21:34.089Z,1.87
2022-12-28T20:24:01.763Z,1.67
2022-12-28T20:26:30.173Z,2.20
2022-12-28T20:28:58.706Z,2.10
2022-12-28T20:31:26.904Z,2.03
2022-12-28T20:33:54.699Z,1.83
2022-12-28T20:36:24.304Z,1.80
2022-12-28T20:38:52.449Z,1.90
2022-12-28T20:41:31.464Z,1.87
2022-12-28T20:43:59.106Z,1.50
2022-12-28T20:46:27.006Z,1.40
2022-12-28T20:48:55.032Z,1.70
2022-12-28T20:51:24.004Z,1.90
2022-12-28T20:53:51.676Z,1.80
2022-12-28T20:56:19.395Z,2.53
2022-12-28T20:58:47.150Z,2.33
2022-12-28T21:01:15.765Z,1.97
2022-12-28T21:03:43.747Z,2.50
2022-12-28T21:06:11.469Z,2.00
2022-12-28T21:08:40.487Z,1.57
2022-12-28T21:11:08.193Z,1.83
2022-12-28T21:13:40.682Z,1.83
2022-12-28T21:16:10.431Z,1.67
2022-12-28T21:18:38.226Z,2.40
2022-12-28T21:21:06.369Z,1.90
2022-12-28T21:23:34.001Z,1.90
2022-12-28T21:26:03.397Z,1.93
2022-12-28T21:28:31.365Z,1.90
2022-12-28T21:30:59.880Z,1.60
2022-12-28T21:33:27.525Z,2.07
2022-12-28T21:36:03.718Z,2.03
2022-12-28T21:38:31.993Z,2.00
2022-12-28T21:41:00.875Z,1.70
2022-12-28T21:43:29.858Z,1.20
2022-12-28T21:46:01.935Z,1.60
2022-12-28T21:48:31.058Z,1.43
2022-12-28T21:51:03.727Z,1.50
2022-12-28T21:53:31.458Z,1.67
2022-12-28T21:55:59.225Z,1.20
2022-12-28T21:58:26.963Z,1.20
2022-12-28T22:01:07.807Z,1.30
2022-12-28T22:03:44.711Z,1.80
2022-12-28T22:06:12.394Z,1.30
2022-12-28T22:08:52.168Z,1.47
2022-12-28T22:11:29.307Z,1.20
2022-12-28T22:13:56.919Z,1.40
2022-12-28T22:16:25.836Z,1.17
2022-12-28T22:19:02.170Z,0.90
2022-12-28T22:21:30.989Z,1.27
2022-12-28T22:23:58.575Z,1.00
2022-12-28T22:26:26.255Z,1.10
2022-12-28T22:28:53.884Z,1.23
2022-12-28T22:31:21.609Z,1.17
2022-12-28T22:33:50.624Z,1.13
2022-12-28T22:36:18.850Z,1.00
2022-12-28T22:38:46.678Z,1.00
2022-12-28T22:41:14.464Z,1.10
2022-12-28T22:43:42.116Z,0.90
2022-12-28T22:46:10.527Z,1.03
2022-12-28T22:48:38.726Z,1.00
2022-12-28T22:51:08.599Z,1.00
2022-12-28T22:53:37.229Z,1.50
2022-12-28T22:56:05.982Z,1.17
2022-12-28T22:58:34.017Z,1.10
2022-12-28T23:01:05.771Z,1.10
2022-12-28T23:03:33.549Z,1.00
2022-12-28T23:06:01.220Z,1.00
2022-12-28T23:08:30.641Z,1.30
2022-12-28T23:10:59.235Z,1.03
2022-12-28T23:13:28.000Z,1.20
2022-12-28T23:15:55.231Z,1.10
2022-12-28T23:18:33.360Z,1.00
2022-12-28T23:21:12.421Z,1.20
2022-12-28T23:23:51.389Z,1.00
2022-12-28T23:26:29.396Z,1.00
2022-12-28T23:28:56.996Z,1.10
2022-12-28T23:31:24.642Z,1.00
2022-12-28T23:33:52.700Z,1.20
2022-12-28T23:36:21.351Z,1.40
2022-12-28T23:38:50.938Z,1.37
2022-12-28T23:41:28.542Z,1.13
2022-12-28T23:43:56.172Z,1.00
2022-12-28T23:46:23.891Z,1.00
2022-12-28T23:48:51.512Z,1.00
2022-12-28T23:51:19.429Z,1.10
2022-12-28T23:53:47.119Z,0.90
2022-12-28T23:56:16.013Z,1.00
2022-12-28T23:58:43.690Z,1.10
